createdAt,value
2022-09-23T00:00:35.948Z,22.31
2022-09-23T00:03:02.560Z,22.30
2022-09-23T00:05:30.312Z,22.32
2022-09-23T00:07:57.640Z,22.33
2022-09-23T00:10:24.851Z,22.34
2022-09-23T00:12:51.311Z,22.34
2022-09-23T00:15:17.868Z,22.33
2022-09-23T00:17:44.961Z,22.35
2022-09-23T00:20:11.902Z,22.35
2022-09-23T00:22:38.282Z,22.34
2022-09-23T00:25:05.239Z,22.34
2022-09-23T00:27:33.915Z,22.35
2022-09-23T00:30:00.733Z,22.34
2022-09-23T00:32:27.307Z,22.34
2022-09-23T00:34:53.771Z,22.34
2022-09-23T00:37:20.714Z,22.34
2022-09-23T00:39:47.550Z,22.34
2022-09-23T00:42:16.326Z,22.35
2022-09-23T00:44:42.780Z,22.35
2022-09-23T00:47:28.053Z,22.35
2022-09-23T00:50:23.857Z,22.34
2022-09-23T00:52:51.401Z,22.34
2022-09-23T00:55:21.780Z,22.35
2022-09-23T00:57:48.191Z,22.35
2022-09-23T01:00:14.699Z,22.36
2022-09-23T01:02:41.091Z,22.38
2022-09-23T01:05:08.121Z,22.37
2022-09-23T01:07:34.883Z,22.37
2022-09-23T01:10:02.053Z,22.39
2022-09-23T01:12:34.550Z,22.38
2022-09-23T01:15:11.323Z,22.39
2022-09-23T01:17:39.379Z,22.38
2022-09-23T01:20:19.940Z,22.38
2022-09-23T01:22:58.608Z,22.37
2022-09-23T01:25:37.144Z,22.38
2022-09-23T01:28:12.784Z,22.38
2022-09-23T01:30:42.336Z,22.38
2022-09-23T01:33:22.338Z,22.38
2022-09-23T01:35:57.730Z,22.38
2022-09-23T01:38:37.394Z,22.38
2022-09-23T01:41:23.939Z,22.38
2022-09-23T01:43:59.689Z,22.40
2022-09-23T01:46:27.991Z,22.40
2022-09-23T01:49:01.009Z,22.40
2022-09-23T01:51:30.751Z,22.32
2022-09-23T01:54:09.365Z,22.25
2022-09-23T01:56:39.162Z,22.21
2022-09-23T01:59:10.943Z,22.29
2022-09-23T02:01:41.368Z,22.33
2022-09-23T02:04:17.678Z,22.37
2022-09-23T02:06:51.248Z,22.38
2022-09-23T02:09:24.925Z,22.40
2022-09-23T02:11:52.963Z,22.41
2022-09-23T02:14:22.280Z,22.42
2022-09-23T02:16:51.012Z,22.42
2022-09-23T02:19:36.470Z,22.43
2022-09-23T02:22:15.093Z,22.43
2022-09-23T02:24:41.524Z,22.43
2022-09-23T02:27:13.875Z,22.43
2022-09-23T02:29:49.346Z,22.42
2022-09-23T02:32:23.055Z,22.43
2022-09-23T02:34:58.272Z,22.43
2022-09-23T02:37:27.728Z,22.42
2022-09-23T02:40:06.106Z,22.42
2022-09-23T02:42:38.998Z,22.43
2022-09-23T02:45:05.951Z,22.44
2022-09-23T02:47:34.219Z,22.45
2022-09-23T02:50:01.352Z,22.43
2022-09-23T02:52:27.874Z,22.45
2022-09-23T02:54:54.705Z,22.43
2022-09-23T02:57:21.500Z,22.45
2022-09-23T02:59:48.174Z,22.45
2022-09-23T03:02:18.183Z,22.44
2022-09-23T03:04:47.513Z,22.45
2022-09-23T03:07:20.128Z,22.36
2022-09-23T03:09:52.655Z,22.29
2022-09-23T03:12:37.931Z,22.28
2022-09-23T03:15:26.932Z,22.31
2022-09-23T03:18:13.537Z,22.37
2022-09-23T03:20:39.870Z,22.40
2022-09-23T03:23:08.947Z,22.42
2022-09-23T03:25:37.305Z,22.42
2022-09-23T03:28:04.911Z,22.44
2022-09-23T03:30:35.518Z,22.46
2022-09-23T03:33:03.348Z,22.47
2022-09-23T03:35:31.922Z,22.47
2022-09-23T03:37:58.319Z,22.47
2022-09-23T03:40:33.521Z,22.48
2022-09-23T03:43:01.491Z,22.47
2022-09-23T03:45:30.987Z,22.48
2022-09-23T03:47:57.606Z,22.48
2022-09-23T03:50:24.366Z,22.49
2022-09-23T03:52:50.787Z,22.47
2022-09-23T03:55:18.113Z,22.48
2022-09-23T03:57:45.266Z,22.48
2022-09-23T04:00:13.029Z,22.49
2022-09-23T04:02:39.794Z,22.49
2022-09-23T04:05:06.857Z,22.48
2022-09-23T04:07:33.309Z,22.48
2022-09-23T04:09:59.695Z,22.50
2022-09-23T04:12:26.034Z,22.48
2022-09-23T04:14:52.504Z,22.49
2022-09-23T04:17:18.864Z,22.49
2022-09-23T04:19:45.542Z,22.50
2022-09-23T04:22:12.047Z,22.50
2022-09-23T04:24:38.416Z,22.49
2022-09-23T04:27:04.920Z,22.50
2022-09-23T04:29:31.250Z,22.49
2022-09-23T04:31:57.832Z,22.50
2022-09-23T04:34:24.216Z,22.51
2022-09-23T04:36:50.891Z,22.50
2022-09-23T04:39:17.671Z,22.50
2022-09-23T04:41:44.797Z,22.50
2022-09-23T04:44:11.842Z,22.50
2022-09-23T04:46:39.259Z,22.49
2022-09-23T04:49:06.142Z,22.51
2022-09-23T04:51:32.520Z,22.51
2022-09-23T04:53:58.881Z,22.51
2022-09-23T04:56:29.373Z,22.51
2022-09-23T04:58:58.653Z,22.48
2022-09-23T05:01:27.155Z,22.49
2022-09-23T05:03:57.821Z,22.50
2022-09-23T05:06:25.190Z,22.50
2022-09-23T05:08:55.359Z,22.50
2022-09-23T05:11:22.180Z,22.51
2022-09-23T05:13:49.484Z,22.51
2022-09-23T05:16:16.427Z,22.50
2022-09-23T05:18:44.015Z,22.50
2022-09-23T05:21:11.610Z,22.49
2022-09-23T05:23:38.171Z,22.50
2022-09-23T05:26:06.853Z,22.50
2022-09-23T05:28:34.355Z,22.49
2022-09-23T05:31:20.299Z,22.50
2022-09-23T05:33:48.734Z,22.48
2022-09-23T05:36:17.792Z,22.49
2022-09-23T05:38:44.606Z,22.47
2022-09-23T05:41:12.557Z,22.48
2022-09-23T05:43:39.395Z,22.49
2022-09-23T05:46:08.519Z,22.49
2022-09-23T05:48:35.858Z,22.47
2022-09-23T05:51:02.713Z,22.48
2022-09-23T05:53:30.191Z,22.48
2022-09-23T05:55:57.425Z,22.46
2022-09-23T05:58:24.131Z,22.47
2022-09-23T06:00:50.882Z,22.48
2022-09-23T06:03:18.871Z,22.48
2022-09-23T06:05:45.290Z,22.48
2022-09-23T06:08:12.115Z,22.47
2022-09-23T06:10:42.556Z,22.48
2022-09-23T06:13:08.933Z,22.47
2022-09-23T06:15:35.633Z,22.47
2022-09-23T06:18:02.222Z,22.47
2022-09-23T06:20:28.760Z,22.47
2022-09-23T06:22:56.364Z,22.48
2022-09-23T06:25:23.082Z,22.48
2022-09-23T06:27:56.905Z,22.47
2022-09-23T06:30:23.624Z,22.48
2022-09-23T06:32:53.377Z,22.48
2022-09-23T06:35:27.089Z,22.47
2022-09-23T06:37:54.536Z,22.48
2022-09-23T06:40:22.605Z,22.48
2022-09-23T06:42:56.474Z,22.48
2022-09-23T06:45:23.483Z,22.48
2022-09-23T06:47:56.107Z,22.49
2022-09-23T06:50:24.101Z,22.49
2022-09-23T06:52:55.968Z,22.48
2022-09-23T06:55:27.830Z,22.47
2022-09-23T06:57:55.489Z,22.49
2022-09-23T07:00:22.033Z,22.48
2022-09-23T07:02:48.977Z,22.48
2022-09-23T07:05:18.203Z,22.48
2022-09-23T07:07:44.655Z,22.48
2022-09-23T07:10:11.642Z,22.49
2022-09-23T07:12:38.333Z,22.47
2022-09-23T07:15:04.903Z,22.47
2022-09-23T07:17:32.706Z,22.47
2022-09-23T07:19:59.088Z,22.46
2022-09-23T07:22:26.437Z,22.47
2022-09-23T07:24:55.967Z,22.47
2022-09-23T07:27:26.383Z,22.49
2022-09-23T07:29:53.124Z,22.49
2022-09-23T07:32:20.521Z,22.49
2022-09-23T07:34:47.272Z,22.50
2022-09-23T07:37:14.445Z,22.48
2022-09-23T07:39:41.917Z,22.51
2022-09-23T07:42:08.362Z,22.52
2022-09-23T07:44:34.815Z,22.51
2022-09-23T07:47:01.220Z,22.52
2022-09-23T07:49:27.716Z,22.54
2022-09-23T07:51:54.471Z,22.53
2022-09-23T07:54:21.017Z,22.55
2022-09-23T07:56:47.506Z,22.55
2022-09-23T07:59:17.148Z,22.56
2022-09-23T08:01:51.068Z,22.56
2022-09-23T08:04:19.322Z,22.53
2022-09-23T08:06:48.621Z,22.58
2022-09-23T08:09:15.797Z,22.60
2022-09-23T08:11:42.492Z,22.61
2022-09-23T08:14:13.484Z,22.60
2022-09-23T08:16:40.594Z,22.62
2022-09-23T08:19:07.212Z,22.63
2022-09-23T08:21:33.805Z,22.62
2022-09-23T08:24:00.631Z,22.63
2022-09-23T08:26:28.376Z,22.63
2022-09-23T08:28:55.726Z,22.65
2022-09-23T08:31:23.323Z,22.65
2022-09-23T08:33:56.530Z,22.66
2022-09-23T08:36:23.494Z,22.66
2022-09-23T08:38:50.166Z,22.67
2022-09-23T08:41:22.565Z,22.69
2022-09-23T08:43:51.337Z,22.69
2022-09-23T08:46:24.893Z,22.71
2022-09-23T08:48:51.720Z,22.71
2022-09-23T08:51:31.444Z,22.72
2022-09-23T08:53:58.640Z,22.72
2022-09-23T08:56:25.067Z,22.72
2022-09-23T08:59:00.572Z,22.74
2022-09-23T09:01:30.140Z,22.73
2022-09-23T09:04:16.767Z,22.73
2022-09-23T09:07:24.589Z,22.73
2022-09-23T09:09:57.402Z,22.73
2022-09-23T09:12:42.454Z,22.73
2022-09-23T09:15:12.841Z,22.74
2022-09-23T09:17:46.919Z,22.75
2022-09-23T09:20:42.977Z,22.78
2022-09-23T09:23:12.447Z,22.77
2022-09-23T09:25:49.528Z,22.75
2022-09-23T09:28:16.698Z,22.78
2022-09-23T09:30:48.631Z,22.78
2022-09-23T09:33:21.204Z,22.80
2022-09-23T09:36:03.009Z,22.81
2022-09-23T09:38:29.480Z,22.80
2022-09-23T09:41:00.300Z,22.81
2022-09-23T09:43:26.842Z,22.81
2022-09-23T09:46:02.379Z,22.81
2022-09-23T09:48:37.775Z,22.81
2022-09-23T09:51:18.802Z,22.80
2022-09-23T09:53:45.341Z,22.80
2022-09-23T09:56:14.046Z,22.82
2022-09-23T09:58:49.820Z,22.81
2022-09-23T10:01:27.321Z,22.81
2022-09-23T10:03:56.919Z,22.81
2022-09-23T10:06:26.618Z,22.82
2022-09-23T10:09:02.240Z,22.82
2022-09-23T10:11:29.580Z,22.81
2022-09-23T10:14:09.994Z,22.81
2022-09-23T10:16:37.199Z,22.82
2022-09-23T10:19:10.355Z,22.82
2022-09-23T10:21:37.564Z,22.82
2022-09-23T10:24:06.140Z,22.82
2022-09-23T10:26:42.248Z,22.82
2022-09-23T10:29:20.674Z,22.83
2022-09-23T10:31:47.115Z,22.82
2022-09-23T10:34:25.089Z,22.81
2022-09-23T10:36:55.736Z,22.81
2022-09-23T10:39:40.519Z,22.81
2022-09-23T10:42:37.625Z,22.81
2022-09-23T10:45:43.327Z,22.82
2022-09-23T10:48:28.955Z,22.81
2022-09-23T10:50:55.510Z,22.81
2022-09-23T10:53:33.929Z,22.81
2022-09-23T10:56:14.936Z,22.82
2022-09-23T10:58:58.979Z,22.83
2022-09-23T11:02:00.180Z,22.83
2022-09-23T11:04:29.602Z,22.83
2022-09-23T11:07:02.162Z,22.83
2022-09-23T11:09:28.599Z,22.81
2022-09-23T11:12:01.044Z,22.83
2022-09-23T11:14:45.892Z,22.81
2022-09-23T11:17:31.130Z,22.81
2022-09-23T11:20:17.921Z,22.81
2022-09-23T11:22:50.663Z,22.78
2022-09-23T11:25:35.068Z,22.79
2022-09-23T11:28:01.467Z,22.77
2022-09-23T11:30:37.987Z,22.78
2022-09-23T11:33:16.396Z,22.79
2022-09-23T11:35:42.828Z,22.79
2022-09-23T11:38:15.989Z,22.79
2022-09-23T11:40:46.464Z,22.80
2022-09-23T11:43:16.105Z,22.81
2022-09-23T11:45:46.295Z,22.82
2022-09-23T11:48:15.557Z,22.81
2022-09-23T11:50:41.893Z,22.82
2022-09-23T11:53:23.524Z,22.83
2022-09-23T11:55:58.187Z,22.82
2022-09-23T11:58:30.344Z,22.84
2022-09-23T12:01:02.856Z,22.84
2022-09-23T12:03:42.537Z,22.83
2022-09-23T12:06:20.355Z,22.83
2022-09-23T12:08:47.486Z,22.84
2022-09-23T12:11:13.802Z,22.83
2022-09-23T12:13:56.748Z,22.83
2022-09-23T12:16:35.421Z,22.83
2022-09-23T12:19:14.017Z,22.83
2022-09-23T12:21:58.034Z,22.81
2022-09-23T12:24:24.732Z,22.82
2022-09-23T12:27:01.417Z,22.81
2022-09-23T12:29:32.071Z,22.81
2022-09-23T12:31:59.187Z,22.81
2022-09-23T12:34:40.505Z,22.79
2022-09-23T12:37:07.078Z,22.79
2022-09-23T12:39:37.186Z,22.78
2022-09-23T12:42:05.242Z,22.77
2022-09-23T12:44:42.063Z,22.78
2022-09-23T12:47:14.323Z,22.76
2022-09-23T12:49:42.050Z,22.75
2022-09-23T12:52:17.595Z,22.74
2022-09-23T12:54:48.179Z,22.75
2022-09-23T12:57:34.928Z,22.73
2022-09-23T13:00:24.434Z,22.72
2022-09-23T13:03:10.783Z,22.73
2022-09-23T13:06:04.975Z,22.72
2022-09-23T13:08:32.738Z,22.72
2022-09-23T13:11:03.027Z,22.69
2022-09-23T13:13:31.634Z,22.69
2022-09-23T13:16:10.412Z,22.69
2022-09-23T13:18:49.360Z,22.69
2022-09-23T13:21:17.787Z,22.69
2022-09-23T13:24:04.131Z,22.68
2022-09-23T13:26:31.688Z,22.67
2022-09-23T13:28:58.707Z,22.66
2022-09-23T13:31:25.238Z,22.62
2022-09-23T13:33:56.758Z,22.65
2022-09-23T13:36:23.464Z,22.64
2022-09-23T13:38:49.860Z,22.65
2022-09-23T13:41:18.601Z,22.63
2022-09-23T13:43:45.075Z,22.63
2022-09-23T13:46:13.398Z,22.62
2022-09-23T13:48:40.617Z,22.61
2022-09-23T13:51:10.035Z,22.61
2022-09-23T13:53:36.779Z,22.61
2022-09-23T13:56:03.210Z,22.59
2022-09-23T13:58:30.947Z,22.57
2022-09-23T14:00:57.891Z,22.56
2022-09-23T14:03:25.789Z,22.57
2022-09-23T14:05:52.931Z,22.55
2022-09-23T14:08:19.797Z,22.52
2022-09-23T14:10:46.885Z,22.52
2022-09-23T14:13:27.661Z,22.51
2022-09-23T14:15:59.196Z,22.51
2022-09-23T14:18:28.798Z,22.50
2022-09-23T14:20:55.192Z,22.49
2022-09-23T14:23:21.604Z,22.47
2022-09-23T14:25:48.472Z,22.47
2022-09-23T14:28:24.941Z,22.46
2022-09-23T14:30:53.061Z,22.46
2022-09-23T14:33:24.133Z,22.47
2022-09-23T14:35:52.845Z,22.47
2022-09-23T14:38:45.901Z,22.47
2022-09-23T14:41:18.290Z,22.46
2022-09-23T14:43:50.662Z,22.46
2022-09-23T14:46:20.701Z,22.47
2022-09-23T14:49:05.932Z,22.45
2022-09-23T14:51:35.749Z,22.46
2022-09-23T14:54:22.422Z,22.46
2022-09-23T14:56:48.943Z,22.45
2022-09-23T14:59:26.011Z,22.45
2022-09-23T15:01:52.406Z,22.47
2022-09-23T15:04:21.585Z,22.47
2022-09-23T15:06:50.932Z,22.49
2022-09-23T15:09:20.452Z,22.51
2022-09-23T15:11:47.139Z,22.52
2022-09-23T15:14:36.585Z,22.52
2022-09-23T15:17:01.323Z,22.51
2022-09-23T15:19:28.981Z,22.52
2022-09-23T15:21:55.466Z,22.54
2022-09-23T15:24:40.052Z,22.52
2022-09-23T15:27:10.673Z,22.51
2022-09-23T15:29:37.015Z,22.51
2022-09-23T15:32:03.499Z,22.51
2022-09-23T15:34:31.729Z,22.52
2022-09-23T15:36:58.222Z,22.50
2022-09-23T15:39:35.536Z,22.50
2022-09-23T15:42:02.608Z,22.51
2022-09-23T15:44:29.918Z,22.50
2022-09-23T15:46:59.935Z,22.50
2022-09-23T15:49:32.842Z,22.51
2022-09-23T15:51:59.758Z,22.50
2022-09-23T15:54:26.563Z,22.50
2022-09-23T15:56:52.910Z,22.49
2022-09-23T15:59:20.443Z,22.49
2022-09-23T16:01:47.431Z,22.49
2022-09-23T16:04:15.829Z,22.48
2022-09-23T16:06:43.366Z,22.48
2022-09-23T16:09:12.784Z,22.47
2022-09-23T16:11:40.181Z,22.46
2022-09-23T16:14:07.729Z,22.44
2022-09-23T16:16:34.153Z,22.42
2022-09-23T16:19:00.641Z,22.42
2022-09-23T16:21:28.519Z,22.41
2022-09-23T16:23:55.261Z,22.42
2022-09-23T16:26:24.253Z,22.43
2022-09-23T16:28:52.295Z,22.42
2022-09-23T16:31:19.217Z,22.41
2022-09-23T16:33:46.476Z,22.38
2022-09-23T16:36:23.469Z,22.37
2022-09-23T16:38:49.930Z,22.36
2022-09-23T16:41:16.416Z,22.35
2022-09-23T16:43:42.802Z,22.35
2022-09-23T16:46:13.284Z,22.33
2022-09-23T16:48:40.849Z,22.32
2022-09-23T16:51:18.594Z,22.32
2022-09-23T16:53:45.080Z,22.31
2022-09-23T16:56:12.971Z,22.30
2022-09-23T16:58:40.119Z,22.30
2022-09-23T17:01:26.274Z,22.29
2022-09-23T17:03:53.224Z,22.28
2022-09-23T17:06:19.612Z,22.27
2022-09-23T17:08:49.341Z,22.26
2022-09-23T17:11:16.688Z,22.26
2022-09-23T17:13:43.808Z,22.25
2022-09-23T17:16:12.002Z,22.24
2022-09-23T17:18:41.329Z,22.23
2022-09-23T17:21:08.330Z,22.21
2022-09-23T17:23:35.699Z,22.21
2022-09-23T17:26:02.539Z,22.20
2022-09-23T17:28:29.261Z,22.19
2022-09-23T17:31:00.135Z,22.19
2022-09-23T17:33:27.401Z,22.19
2022-09-23T17:35:54.530Z,22.17
2022-09-23T17:38:25.593Z,22.17
2022-09-23T17:40:55.986Z,22.16
2022-09-23T17:43:25.943Z,22.12
2022-09-23T17:45:54.444Z,22.13
2022-09-23T17:48:21.745Z,22.13
2022-09-23T17:50:57.362Z,22.12
2022-09-23T17:53:24.269Z,22.10
2022-09-23T17:55:57.386Z,22.10
2022-09-23T17:58:24.548Z,22.09
2022-09-23T18:00:50.997Z,22.09
2022-09-23T18:03:17.551Z,22.09
2022-09-23T18:05:43.871Z,22.09
2022-09-23T18:08:10.165Z,22.08
2022-09-23T18:10:36.527Z,22.07
2022-09-23T18:13:02.967Z,22.06
2022-09-23T18:15:31.250Z,22.05
2022-09-23T18:17:57.717Z,22.06
2022-09-23T18:20:24.039Z,22.05
2022-09-23T18:22:50.405Z,22.05
2022-09-23T18:25:37.563Z,22.05
2022-09-23T18:28:03.211Z,22.05
2022-09-23T18:30:35.433Z,22.04
2022-09-23T18:33:02.170Z,22.03
2022-09-23T18:35:28.726Z,22.02
2022-09-23T18:37:56.026Z,22.02
2022-09-23T18:40:22.438Z,22.02
2022-09-23T18:42:50.264Z,22.01
2022-09-23T18:45:16.646Z,22.01
2022-09-23T18:48:01.444Z,22.01
2022-09-23T18:50:40.221Z,22.00
2022-09-23T18:53:07.544Z,22.00
2022-09-23T18:55:35.545Z,21.98
2022-09-23T18:58:02.317Z,21.99
2022-09-23T19:00:28.891Z,22.00
2022-09-23T19:02:55.513Z,21.99
2022-09-23T19:05:21.972Z,21.99
2022-09-23T19:07:48.346Z,21.99
2022-09-23T19:10:14.800Z,21.97
2022-09-23T19:12:41.182Z,21.96
2022-09-23T19:15:08.199Z,21.95
2022-09-23T19:17:34.685Z,21.96
2022-09-23T19:20:01.240Z,21.95
2022-09-23T19:22:27.673Z,21.95
2022-09-23T19:24:54.084Z,21.94
2022-09-23T19:27:20.440Z,21.94
2022-09-23T19:29:48.025Z,21.93
2022-09-23T19:32:15.870Z,21.92
2022-09-23T19:34:43.636Z,21.91
2022-09-23T19:37:10.126Z,21.91
2022-09-23T19:39:37.543Z,21.89
2022-09-23T19:42:04.030Z,21.89
2022-09-23T19:44:30.532Z,21.90
2022-09-23T19:46:57.649Z,21.89
2022-09-23T19:49:24.671Z,21.88
2022-09-23T19:51:51.793Z,21.87
2022-09-23T19:54:20.515Z,21.86
2022-09-23T19:56:48.590Z,21.86
2022-09-23T19:59:18.523Z,21.86
2022-09-23T20:01:45.751Z,21.85
2022-09-23T20:04:12.229Z,21.83
2022-09-23T20:06:38.883Z,21.83
2022-09-23T20:09:05.586Z,21.83
2022-09-23T20:11:32.497Z,21.82
2022-09-23T20:14:04.808Z,21.81
2022-09-23T20:16:35.417Z,21.81
2022-09-23T20:19:02.897Z,21.81
2022-09-23T20:21:29.897Z,21.80
2022-09-23T20:23:56.856Z,21.79
2022-09-23T20:26:41.917Z,21.79
2022-09-23T20:29:09.015Z,21.76
2022-09-23T20:31:35.837Z,21.76
2022-09-23T20:34:05.635Z,21.75
2022-09-23T20:36:33.239Z,21.75
2022-09-23T20:39:00.865Z,21.74
2022-09-23T20:41:27.841Z,21.75
2022-09-23T20:43:55.089Z,21.74
2022-09-23T20:46:24.704Z,21.74
2022-09-23T20:48:51.512Z,21.73
2022-09-23T20:51:17.976Z,21.72
2022-09-23T20:53:45.765Z,21.72
2022-09-23T20:56:13.286Z,21.71
2022-09-23T20:58:40.227Z,21.71
2022-09-23T21:01:10.735Z,21.71
2022-09-23T21:03:40.843Z,21.69
2022-09-23T21:06:08.379Z,21.69
2022-09-23T21:08:35.893Z,21.68
2022-09-23T21:11:03.723Z,21.68
2022-09-23T21:13:30.896Z,21.66
2022-09-23T21:16:03.987Z,21.66
2022-09-23T21:18:30.648Z,21.66
2022-09-23T21:20:57.797Z,21.66
2022-09-23T21:23:25.879Z,21.64
2022-09-23T21:25:52.559Z,21.64
2022-09-23T21:28:19.102Z,21.63
2022-09-23T21:30:51.117Z,21.63
2022-09-23T21:33:18.271Z,21.62
2022-09-23T21:35:44.747Z,21.62
2022-09-23T21:38:11.128Z,21.61
2022-09-23T21:40:55.717Z,21.61
2022-09-23T21:43:23.503Z,21.60
2022-09-23T21:45:56.951Z,21.61
2022-09-23T21:48:24.299Z,21.60
2022-09-23T21:50:54.239Z,21.58
2022-09-23T21:53:21.236Z,21.60
2022-09-23T21:55:48.857Z,21.58
2022-09-23T21:58:15.422Z,21.58
2022-09-23T22:00:42.390Z,21.58
2022-09-23T22:03:08.874Z,21.52
2022-09-23T22:05:35.318Z,21.56
2022-09-23T22:08:01.779Z,21.55
2022-09-23T22:10:28.191Z,21.57
2022-09-23T22:12:54.513Z,21.54
2022-09-23T22:15:20.904Z,21.57
2022-09-23T22:17:48.442Z,21.62
2022-09-23T22:20:16.003Z,21.63
2022-09-23T22:22:42.362Z,21.64
2022-09-23T22:25:09.002Z,21.65
2022-09-23T22:27:55.392Z,21.66
2022-09-23T22:30:40.616Z,21.65
2022-09-23T22:33:07.010Z,21.62
2022-09-23T22:35:33.366Z,21.59
2022-09-23T22:38:01.012Z,21.50
2022-09-23T22:40:27.417Z,21.47
2022-09-23T22:42:54.245Z,21.47
2022-09-23T22:45:20.644Z,21.49
2022-09-23T22:47:47.019Z,21.50
2022-09-23T22:50:14.432Z,21.57
2022-09-23T22:52:41.134Z,21.62
2022-09-23T22:55:10.673Z,21.68
2022-09-23T22:57:37.215Z,21.69
2022-09-23T23:00:06.952Z,21.70
2022-09-23T23:02:33.378Z,21.71
2022-09-23T23:05:00.977Z,21.71
2022-09-23T23:07:27.339Z,21.72
2022-09-23T23:09:53.899Z,21.72
2022-09-23T23:12:20.802Z,21.72
2022-09-23T23:14:47.849Z,21.72
2022-09-23T23:17:14.500Z,21.71
2022-09-23T23:19:40.876Z,21.72
2022-09-23T23:22:07.349Z,21.72
2022-09-23T23:24:33.746Z,21.72
2022-09-23T23:27:00.121Z,21.72
2022-09-23T23:29:27.796Z,21.71
2022-09-23T23:31:54.343Z,21.70
2022-09-23T23:34:21.565Z,21.71
2022-09-23T23:36:54.368Z,21.70
2022-09-23T23:39:23.431Z,21.69
2022-09-23T23:41:54.179Z,21.69
2022-09-23T23:44:20.916Z,21.68
2022-09-23T23:46:48.124Z,21.68
2022-09-23T23:49:14.798Z,21.68
2022-09-23T23:51:41.201Z,21.67
2022-09-23T23:54:07.570Z,21.67
2022-09-23T23:56:33.917Z,21.68
2022-09-23T23:59:02.365Z,21.67
